createdAt,value
2023-04-25T00:00:12.804Z,13.62
2023-04-25T00:02:14.451Z,13.32
2023-04-25T00:04:16.325Z,13.37
2023-04-25T00:06:18.213Z,13.50
2023-04-25T00:08:19.620Z,13.70
2023-04-25T00:10:21.759Z,13.78
2023-04-25T00:12:23.322Z,13.79
2023-04-25T00:14:24.731Z,13.70
2023-04-25T00:16:26.374Z,13.60
2023-04-25T00:18:27.911Z,13.66
2023-04-25T00:20:29.336Z,13.53
2023-04-25T00:22:31.005Z,13.69
2023-04-25T00:24:32.493Z,13.66
2023-04-25T00:26:35.580Z,13.49
2023-04-25T00:28:37.187Z,13.61
2023-04-25T00:30:39.945Z,13.63
2023-04-25T00:32:41.525Z,13.54
2023-04-25T00:34:43.295Z,13.48
2023-04-25T00:36:44.944Z,13.53
2023-04-25T00:38:46.350Z,13.62
2023-04-25T00:40:48.237Z,13.61
2023-04-25T00:42:50.845Z,13.67
2023-04-25T00:44:53.755Z,13.75
2023-04-25T00:46:55.390Z,13.51
2023-04-25T00:48:56.959Z,13.65
2023-04-25T00:50:59.839Z,13.29
2023-04-25T00:53:01.656Z,13.49
2023-04-25T00:55:03.513Z,13.20
2023-04-25T00:57:05.128Z,13.20
2023-04-25T00:59:06.921Z,13.24
2023-04-25T01:01:09.305Z,13.12
2023-04-25T01:03:11.117Z,13.06
2023-04-25T01:05:12.765Z,13.05
2023-04-25T01:07:14.555Z,12.90
2023-04-25T01:09:16.055Z,13.04
2023-04-25T01:11:18.091Z,12.84
2023-04-25T01:13:19.781Z,12.82
2023-04-25T01:15:21.299Z,12.74
2023-04-25T01:17:22.969Z,12.87
2023-04-25T01:19:24.882Z,12.93
2023-04-25T01:21:26.363Z,12.89
2023-04-25T01:23:27.917Z,12.77
2023-04-25T01:25:30.499Z,12.66
2023-04-25T01:27:32.111Z,12.70
2023-04-25T01:29:35.488Z,12.55
2023-04-25T01:31:37.809Z,12.57
2023-04-25T01:33:39.344Z,12.65
2023-04-25T01:35:40.895Z,12.66
2023-04-25T01:37:43.559Z,12.52
2023-04-25T01:39:45.197Z,12.51
2023-04-25T01:41:50.071Z,12.51
2023-04-25T01:43:51.951Z,12.58
2023-04-25T01:45:53.597Z,12.45
2023-04-25T01:47:55.183Z,12.34
2023-04-25T01:49:57.481Z,12.48
2023-04-25T01:51:58.972Z,12.48
2023-04-25T01:54:01.304Z,12.53
2023-04-25T01:56:02.987Z,12.46
2023-04-25T01:58:05.166Z,12.46
2023-04-25T02:00:07.638Z,12.42
2023-04-25T02:02:09.281Z,12.38
2023-04-25T02:04:10.917Z,12.50
2023-04-25T02:06:12.677Z,12.46
2023-04-25T02:08:14.402Z,12.55
2023-04-25T02:10:16.009Z,12.54
2023-04-25T02:12:17.518Z,12.51
2023-04-25T02:14:19.018Z,12.41
2023-04-25T02:16:20.570Z,12.30
2023-04-25T02:18:22.342Z,12.36
2023-04-25T02:20:25.188Z,12.40
2023-04-25T02:22:26.585Z,12.43
2023-04-25T02:24:28.119Z,12.31
2023-04-25T02:26:30.115Z,12.27
2023-04-25T02:28:31.606Z,12.41
2023-04-25T02:30:33.101Z,12.11
2023-04-25T02:32:35.052Z,12.22
2023-04-25T02:34:36.525Z,12.19
2023-04-25T02:36:38.096Z,12.09
2023-04-25T02:38:40.156Z,12.04
2023-04-25T02:40:41.756Z,12.06
2023-04-25T02:42:43.310Z,11.88
2023-04-25T02:44:44.886Z,11.93
2023-04-25T02:46:46.404Z,12.00
2023-04-25T02:48:48.179Z,11.94
2023-04-25T02:50:49.781Z,11.73
2023-04-25T02:52:51.192Z,11.73
2023-04-25T02:54:52.701Z,11.77
2023-04-25T02:56:54.181Z,11.62
2023-04-25T02:58:55.580Z,11.57
2023-04-25T03:00:57.133Z,11.60
2023-04-25T03:02:58.870Z,11.62
2023-04-25T03:05:00.360Z,11.61
2023-04-25T03:07:01.888Z,11.59
2023-04-25T03:09:03.495Z,11.36
2023-04-25T03:11:04.964Z,11.53
2023-04-25T03:13:06.532Z,11.51
2023-04-25T03:15:08.410Z,11.53
2023-04-25T03:17:09.792Z,11.40
2023-04-25T03:19:11.385Z,11.34
2023-04-25T03:21:12.953Z,11.14
2023-04-25T03:23:14.383Z,11.20
2023-04-25T03:25:15.859Z,11.19
2023-04-25T03:27:18.496Z,11.06
2023-04-25T03:29:20.009Z,11.19
2023-04-25T03:31:21.700Z,10.97
2023-04-25T03:33:23.385Z,11.18
2023-04-25T03:35:26.006Z,10.95
2023-04-25T03:37:28.046Z,10.88
2023-04-25T03:39:29.568Z,10.60
2023-04-25T03:41:30.962Z,10.82
2023-04-25T03:43:32.543Z,10.80
2023-04-25T03:45:34.093Z,10.90
2023-04-25T03:47:35.579Z,10.60
2023-04-25T03:49:37.114Z,10.72
2023-04-25T03:51:39.165Z,10.62
2023-04-25T03:53:40.578Z,10.49
2023-04-25T03:55:43.498Z,10.42
2023-04-25T03:57:45.259Z,10.40
2023-04-25T03:59:46.682Z,10.34
2023-04-25T04:01:48.149Z,10.49
2023-04-25T04:03:50.101Z,10.63
2023-04-25T04:05:52.044Z,10.65
2023-04-25T04:07:53.831Z,10.37
2023-04-25T04:09:55.640Z,10.57
2023-04-25T04:11:57.061Z,10.71
2023-04-25T04:13:58.645Z,10.77
2023-04-25T04:16:00.469Z,10.84
2023-04-25T04:18:02.015Z,10.69
2023-04-25T04:20:03.850Z,10.78
2023-04-25T04:22:05.532Z,10.81
2023-04-25T04:24:07.116Z,10.54
2023-04-25T04:26:08.782Z,10.49
2023-04-25T04:28:10.282Z,10.67
2023-04-25T04:30:12.014Z,10.49
2023-04-25T04:32:14.893Z,10.38
2023-04-25T04:34:16.379Z,10.43
2023-04-25T04:36:17.800Z,10.51
2023-04-25T04:38:19.383Z,10.56
2023-04-25T04:40:21.183Z,10.52
2023-04-25T04:42:22.729Z,10.62
2023-04-25T04:44:24.256Z,10.63
2023-04-25T04:46:25.954Z,10.62
2023-04-25T04:48:27.498Z,10.62
2023-04-25T04:50:29.091Z,10.39
2023-04-25T04:52:30.935Z,10.39
2023-04-25T04:54:32.349Z,10.12
2023-04-25T04:56:33.936Z,10.15
2023-04-25T04:58:35.542Z,10.25
2023-04-25T05:00:37.020Z,10.17
2023-04-25T05:02:39.694Z,10.21
2023-04-25T05:04:41.670Z,10.00
2023-04-25T05:06:44.000Z,10.08
2023-04-25T05:08:45.795Z,10.28
2023-04-25T05:10:47.476Z,10.16
2023-04-25T05:12:48.871Z,10.29
2023-04-25T05:14:50.515Z,10.21
2023-04-25T05:16:52.145Z,10.15
2023-04-25T05:18:53.606Z,10.09
2023-04-25T05:20:55.078Z,10.14
2023-04-25T05:22:56.798Z,10.09
2023-04-25T05:24:58.234Z,10.02
2023-04-25T05:26:59.869Z,10.02
2023-04-25T05:29:01.684Z,9.88
2023-04-25T05:31:03.084Z,10.04
2023-04-25T05:33:04.631Z,9.86
2023-04-25T05:35:06.603Z,9.94
2023-04-25T05:37:08.302Z,10.04
2023-04-25T05:39:09.927Z,10.13
2023-04-25T05:41:11.464Z,10.10
2023-04-25T05:43:12.923Z,10.05
2023-04-25T05:45:14.681Z,10.26
2023-04-25T05:47:16.184Z,10.35
2023-04-25T05:49:19.510Z,10.20
2023-04-25T05:51:21.419Z,10.12
2023-04-25T05:53:23.010Z,10.21
2023-04-25T05:55:24.535Z,10.12
2023-04-25T05:57:28.022Z,9.86
2023-04-25T05:59:29.499Z,10.08
2023-04-25T06:01:31.075Z,10.09
2023-04-25T06:03:32.829Z,10.26
2023-04-25T06:05:34.525Z,10.46
2023-04-25T06:07:36.044Z,10.38
2023-04-25T06:09:37.529Z,10.23
2023-04-25T06:11:39.107Z,10.39
2023-04-25T06:13:40.619Z,10.43
2023-04-25T06:15:42.169Z,10.79
2023-04-25T06:17:43.814Z,10.46
2023-04-25T06:19:45.264Z,10.32
2023-04-25T06:21:46.849Z,10.56
2023-04-25T06:23:48.895Z,10.27
2023-04-25T06:25:50.995Z,10.55
2023-04-25T06:27:52.612Z,10.60
2023-04-25T06:29:54.227Z,10.58
2023-04-25T06:31:55.640Z,10.66
2023-04-25T06:33:57.121Z,10.76
2023-04-25T06:35:58.650Z,10.56
2023-04-25T06:38:00.029Z,10.34
2023-04-25T06:40:01.668Z,10.52
2023-04-25T06:42:03.233Z,10.60
2023-04-25T06:44:04.659Z,10.58
2023-04-25T06:46:06.204Z,10.59
2023-04-25T06:48:07.731Z,10.73
2023-04-25T06:50:09.646Z,10.77
2023-04-25T06:52:11.410Z,10.90
2023-04-25T06:54:12.790Z,11.25
2023-04-25T06:56:14.206Z,11.73
2023-04-25T06:58:15.988Z,11.37
2023-04-25T07:00:17.814Z,11.81
2023-04-25T07:02:19.434Z,11.58
2023-04-25T07:04:21.255Z,11.50
2023-04-25T07:06:22.936Z,11.92
2023-04-25T07:08:24.340Z,11.84
2023-04-25T07:10:26.026Z,11.92
2023-04-25T07:12:27.676Z,11.88
2023-04-25T07:14:29.247Z,11.80
2023-04-25T07:16:30.975Z,11.80
2023-04-25T07:18:32.600Z,11.80
2023-04-25T07:20:34.021Z,11.99
2023-04-25T07:22:35.884Z,11.89
2023-04-25T07:24:37.280Z,11.48
2023-04-25T07:26:38.685Z,11.78
2023-04-25T07:28:40.170Z,11.50
2023-04-25T07:30:41.622Z,11.23
2023-04-25T07:32:43.167Z,11.27
2023-04-25T07:34:44.589Z,10.91
2023-04-25T07:36:46.101Z,11.07
2023-04-25T07:38:47.541Z,10.97
2023-04-25T07:40:49.798Z,11.11
2023-04-25T07:42:51.266Z,11.15
2023-04-25T07:44:52.695Z,11.11
2023-04-25T07:46:54.740Z,10.85
2023-04-25T07:48:56.217Z,10.91
2023-04-25T07:50:57.731Z,11.11
2023-04-25T07:52:59.257Z,11.14
2023-04-25T07:55:00.822Z,11.14
2023-04-25T07:57:02.261Z,11.42
2023-04-25T07:59:03.722Z,11.54
2023-04-25T08:01:05.186Z,11.44
2023-04-25T08:03:06.769Z,11.56
2023-04-25T08:05:08.751Z,11.64
2023-04-25T08:07:10.324Z,11.68
2023-04-25T08:09:11.895Z,11.84
2023-04-25T08:11:13.332Z,11.64
2023-04-25T08:13:14.904Z,11.68
2023-04-25T08:15:16.308Z,11.51
2023-04-25T08:17:17.747Z,11.23
2023-04-25T08:19:19.196Z,11.43
2023-04-25T08:21:20.825Z,11.69
2023-04-25T08:23:22.212Z,11.71
2023-04-25T08:25:23.901Z,11.91
2023-04-25T08:27:25.348Z,11.57
2023-04-25T08:29:26.805Z,11.76
2023-04-25T08:31:28.485Z,11.80
2023-04-25T08:33:29.970Z,11.90
2023-04-25T08:35:31.467Z,12.05
2023-04-25T08:37:33.266Z,11.65
2023-04-25T08:39:34.707Z,11.68
2023-04-25T08:41:38.200Z,11.86
2023-04-25T08:43:43.589Z,12.11
2023-04-25T08:45:45.374Z,11.85
2023-04-25T08:47:48.735Z,12.18
2023-04-25T08:49:54.931Z,12.46
2023-04-25T08:52:03.709Z,12.40
2023-04-25T08:54:27.196Z,12.25
2023-04-25T08:56:33.334Z,12.34
2023-04-25T08:58:34.879Z,12.39
2023-04-25T09:00:36.405Z,12.90
2023-04-25T09:02:38.340Z,13.25
2023-04-25T09:04:40.158Z,13.63
2023-04-25T09:06:42.105Z,13.11
2023-04-25T09:08:43.708Z,13.18
2023-04-25T09:10:45.181Z,13.39
2023-04-25T09:13:03.108Z,13.39
2023-04-25T09:15:07.370Z,12.87
2023-04-25T09:17:08.935Z,12.44
2023-04-25T09:19:31.990Z,12.78
2023-04-25T09:21:40.134Z,12.49
2023-04-25T09:23:49.650Z,12.91
2023-04-25T09:25:53.502Z,12.46
2023-04-25T09:27:55.092Z,12.56
2023-04-25T09:29:59.972Z,12.43
2023-04-25T09:32:23.997Z,12.04
2023-04-25T09:34:26.871Z,12.38
2023-04-25T09:36:29.186Z,11.94
2023-04-25T09:38:32.276Z,12.05
2023-04-25T09:40:33.694Z,12.40
2023-04-25T09:42:35.161Z,12.23
2023-04-25T09:44:37.094Z,12.31
2023-04-25T09:46:38.754Z,12.46
2023-04-25T09:48:40.305Z,12.51
2023-04-25T09:50:42.056Z,13.11
2023-04-25T09:52:43.956Z,13.46
2023-04-25T09:54:49.522Z,13.48
2023-04-25T09:56:53.188Z,13.12
2023-04-25T09:58:54.695Z,13.24
2023-04-25T10:01:00.898Z,13.18
2023-04-25T10:03:03.497Z,12.92
2023-04-25T10:05:10.059Z,13.66
2023-04-25T10:07:12.136Z,13.60
2023-04-25T10:09:14.901Z,14.24
2023-04-25T10:11:16.762Z,14.21
2023-04-25T10:13:18.449Z,13.80
2023-04-25T10:15:20.985Z,13.98
2023-04-25T10:17:22.430Z,13.62
2023-04-25T10:19:24.934Z,13.85
2023-04-25T10:21:29.458Z,13.89
2023-04-25T10:23:32.255Z,13.99
2023-04-25T10:25:34.497Z,13.83
2023-04-25T10:27:36.779Z,13.96
2023-04-25T10:29:38.193Z,13.66
2023-04-25T10:31:48.764Z,13.62
2023-04-25T10:33:50.691Z,13.29
2023-04-25T10:35:52.383Z,13.06
2023-04-25T10:38:26.800Z,12.87
2023-04-25T10:40:28.965Z,12.82
2023-04-25T10:42:30.403Z,12.89
2023-04-25T10:44:32.783Z,13.41
2023-04-25T10:46:34.905Z,13.59
2023-04-25T10:48:36.371Z,13.61
2023-04-25T10:50:41.905Z,13.60
2023-04-25T10:52:43.671Z,13.57
2023-04-25T10:54:59.176Z,13.69
2023-04-25T10:57:00.628Z,13.41
2023-04-25T10:59:15.361Z,13.18
2023-04-25T11:01:21.347Z,13.30
2023-04-25T11:03:22.986Z,13.44
2023-04-25T11:05:36.467Z,13.07
2023-04-25T11:08:04.027Z,12.83
2023-04-25T11:10:08.633Z,12.71
2023-04-25T11:12:10.895Z,12.90
2023-04-25T11:14:12.318Z,12.93
2023-04-25T11:16:23.739Z,12.76
2023-04-25T11:18:29.250Z,12.95
2023-04-25T11:20:30.682Z,13.21
2023-04-25T11:22:32.492Z,13.12
2023-04-25T11:24:35.965Z,13.41
2023-04-25T11:26:37.391Z,13.71
2023-04-25T11:28:38.822Z,13.86
2023-04-25T11:30:41.423Z,13.74
2023-04-25T11:32:43.436Z,13.61
2023-04-25T11:34:45.446Z,13.78
2023-04-25T11:36:47.427Z,13.48
2023-04-25T11:38:48.891Z,13.62
2023-04-25T11:40:54.021Z,13.43
2023-04-25T11:42:55.945Z,13.46
2023-04-25T11:44:57.548Z,13.03
2023-04-25T11:46:58.933Z,13.20
2023-04-25T11:49:00.639Z,12.94
2023-04-25T11:51:02.059Z,13.03
2023-04-25T11:53:03.484Z,13.06
2023-04-25T11:55:16.076Z,13.40
2023-04-25T11:57:20.652Z,13.46
2023-04-25T11:59:25.010Z,13.54
2023-04-25T12:01:36.002Z,13.38
2023-04-25T12:03:47.553Z,13.41
2023-04-25T12:05:49.378Z,13.59
2023-04-25T12:07:51.265Z,13.75
2023-04-25T12:09:53.010Z,13.86
2023-04-25T12:11:56.440Z,14.02
2023-04-25T12:14:03.167Z,14.08
2023-04-25T12:16:04.824Z,14.36
2023-04-25T12:18:07.532Z,14.50
2023-04-25T12:20:16.732Z,14.64
2023-04-25T12:22:25.249Z,14.23
2023-04-25T12:24:27.847Z,14.31
2023-04-25T12:26:47.211Z,14.07
2023-04-25T12:28:48.727Z,14.07
2023-04-25T12:31:00.495Z,14.05
2023-04-25T12:33:02.233Z,13.93
2023-04-25T12:35:03.823Z,14.07
2023-04-25T12:37:05.221Z,14.02
2023-04-25T12:39:07.129Z,14.06
2023-04-25T12:41:09.779Z,14.00
2023-04-25T12:43:11.166Z,13.84
2023-04-25T12:45:13.001Z,13.77
2023-04-25T12:47:14.873Z,14.00
2023-04-25T12:49:19.370Z,14.03
2023-04-25T12:51:21.235Z,13.81
2023-04-25T12:53:24.129Z,13.44
2023-04-25T12:55:25.568Z,13.06
2023-04-25T12:57:27.347Z,12.84
2023-04-25T12:59:28.791Z,12.74
2023-04-25T13:01:30.847Z,12.63
2023-04-25T13:03:32.797Z,12.65
2023-04-25T13:05:34.403Z,12.63
2023-04-25T13:07:36.069Z,12.72
2023-04-25T13:09:37.835Z,12.60
2023-04-25T13:11:39.280Z,12.63
2023-04-25T13:13:40.708Z,12.63
2023-04-25T13:15:42.352Z,12.28
2023-04-25T13:17:43.910Z,12.55
2023-04-25T13:19:45.395Z,12.48
2023-04-25T13:21:47.045Z,12.47
2023-04-25T13:23:48.466Z,12.52
2023-04-25T13:25:50.202Z,12.48
2023-04-25T13:27:51.948Z,12.72
2023-04-25T13:29:53.354Z,12.49
2023-04-25T13:31:54.782Z,12.70
2023-04-25T13:33:56.599Z,12.84
2023-04-25T13:35:58.112Z,13.08
2023-04-25T13:37:59.687Z,12.92
2023-04-25T13:40:02.325Z,13.02
2023-04-25T13:42:03.823Z,13.09
2023-04-25T13:44:05.299Z,12.89
2023-04-25T13:46:06.911Z,12.70
2023-04-25T13:48:08.509Z,12.94
2023-04-25T13:50:10.331Z,13.07
2023-04-25T13:52:12.305Z,12.61
2023-04-25T13:54:13.720Z,12.60
2023-04-25T13:56:15.183Z,12.66
2023-04-25T13:58:16.657Z,12.75
2023-04-25T14:00:19.053Z,12.56
2023-04-25T14:02:20.507Z,12.47
2023-04-25T14:04:22.317Z,12.51
2023-04-25T14:06:23.807Z,12.18
2023-04-25T14:08:25.248Z,12.46
2023-04-25T14:10:27.404Z,12.79
2023-04-25T14:12:28.805Z,12.63
2023-04-25T14:14:30.206Z,12.73
2023-04-25T14:16:32.268Z,12.25
2023-04-25T14:18:33.704Z,12.56
2023-04-25T14:20:35.186Z,12.63
2023-04-25T14:22:36.855Z,12.37
2023-04-25T14:24:38.605Z,12.68
2023-04-25T14:26:40.219Z,12.66
2023-04-25T14:28:41.887Z,12.84
2023-04-25T14:30:43.291Z,12.86
2023-04-25T14:32:44.778Z,12.97
2023-04-25T14:34:46.369Z,12.95
2023-04-25T14:36:47.758Z,13.27
2023-04-25T14:38:49.212Z,13.03
2023-04-25T14:40:50.999Z,12.85
2023-04-25T14:42:52.388Z,12.80
2023-04-25T14:44:53.792Z,12.96
2023-04-25T14:46:55.625Z,12.70
2023-04-25T14:48:57.428Z,12.69
2023-04-25T14:50:58.885Z,12.80
2023-04-25T14:53:00.808Z,12.53
2023-04-25T14:55:02.484Z,12.75
2023-04-25T14:57:04.022Z,12.80
2023-04-25T14:59:05.465Z,12.92
2023-04-25T15:01:07.151Z,12.47
2023-04-25T15:03:08.734Z,12.80
2023-04-25T15:05:10.533Z,12.85
2023-04-25T15:07:12.070Z,12.67
2023-04-25T15:09:13.507Z,12.50
2023-04-25T15:11:15.076Z,12.28
2023-04-25T15:13:16.487Z,12.39
2023-04-25T15:15:25.925Z,11.96
2023-04-25T15:17:28.586Z,12.06
2023-04-25T15:19:30.031Z,12.10
2023-04-25T15:21:32.132Z,11.99
2023-04-25T15:23:34.031Z,12.02
2023-04-25T15:25:35.446Z,12.25
2023-04-25T15:27:37.665Z,12.03
2023-04-25T15:29:39.248Z,12.06
2023-04-25T15:31:40.698Z,12.05
2023-04-25T15:33:42.158Z,12.16
2023-04-25T15:35:43.865Z,12.26
2023-04-25T15:37:45.344Z,12.33
2023-04-25T15:39:46.745Z,12.21
2023-04-25T15:41:48.183Z,12.11
2023-04-25T15:43:50.119Z,12.06
2023-04-25T15:45:51.709Z,12.22
2023-04-25T15:47:54.774Z,12.15
2023-04-25T15:49:56.251Z,12.48
2023-04-25T15:51:57.712Z,12.42
2023-04-25T15:53:59.281Z,12.56
2023-04-25T15:56:00.778Z,12.45
2023-04-25T15:58:02.816Z,12.46
2023-04-25T16:00:06.774Z,12.71
2023-04-25T16:02:09.185Z,12.52
2023-04-25T16:04:10.931Z,12.65
2023-04-25T16:06:13.055Z,12.52
2023-04-25T16:08:14.469Z,12.62
2023-04-25T16:10:16.340Z,12.85
2023-04-25T16:12:17.911Z,12.54
2023-04-25T16:14:19.363Z,12.53
2023-04-25T16:16:20.808Z,12.31
2023-04-25T16:18:22.407Z,12.16
2023-04-25T16:20:23.907Z,12.39
2023-04-25T16:22:25.495Z,12.39
2023-04-25T16:24:27.142Z,12.37
2023-04-25T16:26:28.579Z,12.35
2023-04-25T16:28:29.979Z,12.48
2023-04-25T16:30:31.605Z,12.46
2023-04-25T16:32:33.014Z,12.36
2023-04-25T16:34:34.439Z,12.25
2023-04-25T16:36:35.843Z,12.28
2023-04-25T16:38:37.280Z,12.12
2023-04-25T16:40:38.701Z,12.23
2023-04-25T16:42:40.191Z,12.17
2023-04-25T16:44:41.619Z,11.97
2023-04-25T16:46:43.147Z,12.17
2023-04-25T16:48:44.648Z,12.18
2023-04-25T16:50:46.262Z,12.21
2023-04-25T16:52:47.675Z,12.03
2023-04-25T16:54:49.271Z,11.92
2023-04-25T16:56:51.132Z,12.31
2023-04-25T16:58:53.244Z,12.22
2023-04-25T17:00:55.241Z,12.08
2023-04-25T17:02:56.986Z,11.99
2023-04-25T17:04:58.475Z,12.06
2023-04-25T17:07:00.067Z,12.12
2023-04-25T17:09:01.691Z,12.03
2023-04-25T17:11:03.613Z,11.99
2023-04-25T17:13:05.128Z,12.15
2023-04-25T17:15:07.296Z,12.13
2023-04-25T17:17:08.839Z,12.07
2023-04-25T17:19:10.928Z,12.13
2023-04-25T17:21:12.427Z,12.25
2023-04-25T17:23:13.846Z,12.16
2023-04-25T17:25:15.470Z,12.37
2023-04-25T17:27:16.939Z,12.16
2023-04-25T17:29:18.376Z,12.24
2023-04-25T17:31:21.132Z,12.20
2023-04-25T17:33:22.566Z,12.12
2023-04-25T17:35:24.009Z,12.12
2023-04-25T17:37:25.936Z,12.15
2023-04-25T17:39:27.351Z,12.16
2023-04-25T17:41:28.750Z,12.05
2023-04-25T17:43:31.102Z,11.88
2023-04-25T17:45:32.835Z,11.79
2023-04-25T17:47:34.406Z,11.75
2023-04-25T17:49:36.966Z,11.82
2023-04-25T17:51:38.425Z,11.64
2023-04-25T17:53:39.826Z,11.58
2023-04-25T17:55:41.453Z,11.09
2023-04-25T17:57:42.841Z,10.87
2023-04-25T17:59:44.314Z,10.72
2023-04-25T18:01:48.046Z,10.65
2023-04-25T18:03:50.319Z,10.44
2023-04-25T18:05:52.051Z,10.66
2023-04-25T18:07:53.678Z,10.65
2023-04-25T18:09:55.078Z,10.80
2023-04-25T18:11:56.526Z,10.52
2023-04-25T18:13:58.661Z,10.49
2023-04-25T18:16:00.100Z,10.63
2023-04-25T18:18:01.650Z,10.74
2023-04-25T18:20:03.222Z,10.69
2023-04-25T18:22:04.644Z,10.71
2023-04-25T18:24:07.117Z,10.69
2023-04-25T18:26:08.867Z,10.45
2023-04-25T18:28:10.277Z,10.42
2023-04-25T18:30:13.087Z,10.60
2023-04-25T18:32:14.808Z,10.26
2023-04-25T18:34:16.207Z,10.61
2023-04-25T18:36:17.602Z,10.51
2023-04-25T18:38:31.731Z,10.49
2023-04-25T18:40:47.016Z,10.34
2023-04-25T18:42:55.542Z,10.20
2023-04-25T18:44:57.152Z,10.40
2023-04-25T18:46:58.605Z,10.42
2023-04-25T18:49:00.866Z,10.34
2023-04-25T18:51:02.580Z,10.38
2023-04-25T18:53:04.009Z,10.25
2023-04-25T18:55:05.929Z,10.42
2023-04-25T18:57:07.480Z,10.37
2023-04-25T18:59:08.888Z,10.54
2023-04-25T19:01:10.320Z,10.49
2023-04-25T19:03:12.065Z,10.42
2023-04-25T19:05:13.585Z,10.37
2023-04-25T19:07:15.116Z,10.37
2023-04-25T19:09:16.945Z,10.28
2023-04-25T19:11:21.059Z,10.22
2023-04-25T19:13:22.914Z,10.25
2023-04-25T19:15:24.642Z,10.32
2023-04-25T19:17:27.343Z,10.38
2023-04-25T19:19:29.837Z,10.48
2023-04-25T19:21:32.434Z,10.26
2023-04-25T19:23:34.576Z,9.96
2023-04-25T19:25:36.594Z,10.10
2023-04-25T19:27:38.925Z,10.04
2023-04-25T19:29:40.312Z,10.30
2023-04-25T19:31:43.825Z,10.31
2023-04-25T19:33:45.470Z,10.38
2023-04-25T19:35:46.882Z,10.24
2023-04-25T19:37:48.283Z,9.99
2023-04-25T19:39:49.901Z,10.28
2023-04-25T19:41:51.327Z,10.25
2023-04-25T19:43:53.281Z,10.10
2023-04-25T19:45:55.104Z,10.26
2023-04-25T19:47:56.693Z,10.30
2023-04-25T19:49:58.124Z,10.10
2023-04-25T19:51:59.579Z,10.14
2023-04-25T19:54:01.068Z,10.21
2023-04-25T19:56:02.648Z,10.02
2023-04-25T19:58:04.340Z,10.16
2023-04-25T20:00:13.367Z,10.09
2023-04-25T20:02:14.843Z,10.02
2023-04-25T20:04:16.520Z,9.90
2023-04-25T20:06:18.212Z,9.97
2023-04-25T20:08:19.701Z,9.86
2023-04-25T20:10:21.251Z,10.15
2023-04-25T20:12:22.739Z,10.20
2023-04-25T20:14:25.396Z,10.12
2023-04-25T20:16:27.037Z,10.06
2023-04-25T20:18:28.505Z,10.11
2023-04-25T20:20:30.193Z,10.19
2023-04-25T20:22:31.973Z,10.02
2023-04-25T20:24:33.391Z,9.88
2023-04-25T20:26:34.927Z,9.84
2023-04-25T20:28:36.431Z,9.67
2023-04-25T20:30:37.857Z,10.01
2023-04-25T20:32:39.749Z,9.87
2023-04-25T20:34:41.382Z,9.86
2023-04-25T20:36:42.754Z,9.75
2023-04-25T20:38:44.377Z,9.57
2023-04-25T20:40:45.959Z,9.54
2023-04-25T20:42:47.415Z,9.66
2023-04-25T20:44:49.017Z,9.40
2023-04-25T20:46:51.151Z,9.55
2023-04-25T20:48:53.022Z,9.48
2023-04-25T20:50:54.758Z,9.44
2023-04-25T20:52:56.201Z,9.47
2023-04-25T20:54:57.653Z,9.53
2023-04-25T20:56:59.258Z,9.50
2023-04-25T20:59:00.661Z,9.47
2023-04-25T21:01:02.611Z,9.50
2023-04-25T21:03:04.451Z,9.15
2023-04-25T21:05:06.458Z,9.20
2023-04-25T21:07:07.934Z,9.15
2023-04-25T21:09:09.438Z,9.02
2023-04-25T21:11:11.694Z,8.78
2023-04-25T21:13:13.194Z,8.92
2023-04-25T21:15:15.901Z,8.97
2023-04-25T21:17:17.641Z,8.88
2023-04-25T21:19:19.072Z,8.92
2023-04-25T21:21:20.485Z,8.72
2023-04-25T21:23:21.915Z,8.88
2023-04-25T21:25:26.138Z,9.06
2023-04-25T21:27:27.832Z,8.98
2023-04-25T21:29:29.236Z,8.83
2023-04-25T21:31:30.745Z,8.88
2023-04-25T21:33:32.413Z,8.67
2023-04-25T21:35:33.798Z,8.78
2023-04-25T21:37:35.207Z,8.69
2023-04-25T21:39:37.084Z,8.58
2023-04-25T21:41:38.721Z,8.78
2023-04-25T21:43:40.157Z,8.80
2023-04-25T21:46:02.114Z,8.87
2023-04-25T21:48:03.110Z,8.92
2023-04-25T21:50:04.878Z,8.83
2023-04-25T21:52:06.516Z,8.92
2023-04-25T21:54:08.062Z,9.03
2023-04-25T21:56:09.881Z,8.80
2023-04-25T21:58:11.280Z,8.86
2023-04-25T22:00:13.115Z,8.87
2023-04-25T22:02:15.148Z,8.87
2023-04-25T22:04:16.922Z,8.77
2023-04-25T22:06:18.807Z,8.74
2023-04-25T22:08:20.202Z,8.88
2023-04-25T22:10:22.052Z,8.92
2023-04-25T22:12:23.809Z,8.87
2023-04-25T22:14:25.288Z,8.90
2023-04-25T22:16:26.895Z,8.65
2023-04-25T22:18:28.475Z,8.96
2023-04-25T22:20:29.897Z,8.97
2023-04-25T22:22:31.480Z,8.96
2023-04-25T22:24:33.002Z,8.98
2023-04-25T22:26:34.399Z,8.90
2023-04-25T22:28:37.092Z,8.68
2023-04-25T22:30:38.589Z,8.74
2023-04-25T22:32:40.250Z,8.86
2023-04-25T22:34:41.777Z,8.79
2023-04-25T22:36:43.522Z,8.62
2023-04-25T22:38:45.446Z,8.68
2023-04-25T22:40:46.929Z,8.72
2023-04-25T22:42:48.496Z,8.77
2023-04-25T22:44:50.327Z,9.00
2023-04-25T22:46:51.786Z,8.83
2023-04-25T22:48:53.664Z,8.75
2023-04-25T22:51:02.643Z,8.81
2023-04-25T22:53:04.123Z,8.70
2023-04-25T22:55:06.371Z,8.66
2023-04-25T22:57:07.796Z,8.45
2023-04-25T22:59:09.380Z,8.59
2023-04-25T23:01:10.903Z,8.71
2023-04-25T23:03:12.421Z,8.70
2023-04-25T23:05:14.845Z,8.51
2023-04-25T23:07:16.532Z,8.71
2023-04-25T23:09:18.000Z,8.66
2023-04-25T23:11:19.564Z,8.66
2023-04-25T23:13:21.457Z,8.44
2023-04-25T23:15:25.589Z,8.60
2023-04-25T23:17:27.070Z,8.61
2023-04-25T23:19:28.648Z,8.58
2023-04-25T23:21:30.096Z,8.46
2023-04-25T23:23:31.598Z,8.41
2023-04-25T23:25:33.653Z,8.39
2023-04-25T23:27:35.077Z,8.18
2023-04-25T23:29:36.536Z,8.03
2023-04-25T23:31:38.120Z,8.18
2023-04-25T23:33:39.549Z,8.11
2023-04-25T23:35:41.028Z,7.88
2023-04-25T23:37:42.492Z,8.03
2023-04-25T23:39:50.629Z,7.93
2023-04-25T23:41:52.230Z,7.70
2023-04-25T23:43:54.179Z,7.70
2023-04-25T23:45:55.635Z,7.57
2023-04-25T23:47:57.339Z,7.42
2023-04-25T23:49:59.022Z,7.53
2023-04-25T23:52:00.459Z,7.62
2023-04-25T23:54:03.682Z,7.44
2023-04-25T23:56:06.452Z,7.42
2023-04-25T23:58:07.873Z,7.34
